アンマン の空港の天気 - METARとTAF

クィーンアリア国際空港 ( OJAI / AMM ) - ヨルダン アンマン
飛行場実況気象(Metar)
観測時間12/06 12:00 EET (12/06 10:00 UTC)
風向・風速西 4m/s
視程5000m
天気現象煙霧
全天の4割程度の雲 雲底高度 910m
全天の4割程度の雲 雲底高度 1070m
気温15℃
湿度72%
気圧1020hPa
METAROJAI 061000Z 28007KT 5000 HZ SCT030 SCT035 15/10 Q1020 NOSIG
過去の天気等 Google飛行場航空写真 Wunderground天気予報

過去48時間のMETAR

飛行場予報(TAF)
発表時間: 12/06 06:41 EET (12/06 04:41 UTC)
予報対象時間: 6日8時 EET ~ 7日14時 EET
風向・風速西 6m/s
視程5000m
天気現象煙霧
全天の4割程度の雲 雲底高度 1070m
6日9時 EET から 確率 40% で
視程4000m
天気現象弱い雨
少しの塔状積雲 雲底高度 760m
全天の8割程度の雲 雲底高度 910m
TAF OJAI 060441Z 0606/0712 27012KT 5000 HZ SCT035
PROB40 0607/0612 4000 -RA FEW025TCU BKN030